Omskiy-141 — UGZK — position and weather

sailwx.info

Track history (hours):
 
Tides and Currents Weather Stations Pressure Air Temp Water Temp Dewpoint Dewpoint Depression Visibility Wind Speed Wind Dir Waves Ship Positions

Omskiy-141

Last reported at 2017-Feb-18 17:33 UTC. Time now 2017-Feb-26 13:07 UTC.
Position N 54°41' E 020°17'.

Length 108 m; draft 2.7 m.

Type: Cargo ship. MMSI: 273310600.

Date/timePositionNaut miles runAvg speedWind from/ knotsBaromVisibWave heightAir tempDewpointWater temp
2017-Feb-18 17:33N 54°41' E 020°17'15 7.5
2017-Feb-18 15:31N 54°39' E 019°51'1 0.1
2017-Feb-18 04:28N 54°39' E 019°50'6 6.7
2017-Feb-18 03:33N 54°42' E 019°41'8 7.5
2017-Feb-18 02:33N 54°44' E 019°28'8 7.5
2017-Feb-18 01:33N 54°46' E 019°16'7 7.3
2017-Feb-18 00:33N 54°48' E 019°03'8 7.5
2017-Feb-17 23:33N 54°49' E 018°51'7 7.4
2017-Feb-17 22:33N 54°52' E 018°38'8 8.0
2017-Feb-17 21:33N 54°54' E 018°25'9 7.7
2017-Feb-17 20:24N 54°54' E 018°10'149 7.4
2017-Feb-17 00:15N 53°47' E 014°22'5 7.6
2017-Feb-16 23:33N 53°43' E 014°28'8 8.2
2017-Feb-16 22:33N 53°36' E 014°35'1 0.0
2017-Feb-15 09:28N 53°35' E 014°34'4 4.9
2017-Feb-15 08:33N 53°39' E 014°33'5 5.2
2017-Feb-15 07:33N 53°43' E 014°28'28 5.4
2017-Feb-15 02:23N 54°10' E 014°39'7 8.4
2017-Feb-15 01:33N 54°14' E 014°48'9 8.4
2017-Feb-15 00:30N 54°19' E 015°01'8 8.3
2017-Feb-14 23:33N 54°23' E 015°12'8 8.3
2017-Feb-14 22:34N 54°29' E 015°23'8 7.9
2017-Feb-14 21:33N 54°31' E 015°36'9 8.1
2017-Feb-14 20:29N 54°36' E 015°48'8 8.1
2017-Feb-14 19:33N 54°40' E 015°60'  
2017-Feb-09 13:29N 55°12' E 018°41'  
Track history (hours):
 
Tides and Currents Weather Stations Pressure Air Temp Water Temp Dewpoint Dewpoint Depression Visibility Wind Speed Wind Dir Waves Ship Positions

Omskiy-141

Last reported at 2017-Feb-18 17:33 UTC. Time now 2017-Feb-26 13:07 UTC.
Position N 54°41' E 020°17'.

Length 108 m; draft 2.7 m.

Type: Cargo ship. MMSI: 273310600.

Date/timePositionNaut miles runAvg speedWind from/ knotsBaromVisibWave heightAir tempDewpointWater temp
2017-Feb-18 17:33N 54°41' E 020°17'15 7.5
2017-Feb-18 15:31N 54°39' E 019°51'1 0.1
2017-Feb-18 04:28N 54°39' E 019°50'6 6.7
2017-Feb-18 03:33N 54°42' E 019°41'8 7.5
2017-Feb-18 02:33N 54°44' E 019°28'8 7.5
2017-Feb-18 01:33N 54°46' E 019°16'7 7.3
2017-Feb-18 00:33N 54°48' E 019°03'8 7.5
2017-Feb-17 23:33N 54°49' E 018°51'7 7.4
2017-Feb-17 22:33N 54°52' E 018°38'8 8.0
2017-Feb-17 21:33N 54°54' E 018°25'9 7.7
2017-Feb-17 20:24N 54°54' E 018°10'149 7.4
2017-Feb-17 00:15N 53°47' E 014°22'5 7.6
2017-Feb-16 23:33N 53°43' E 014°28'8 8.2
2017-Feb-16 22:33N 53°36' E 014°35'1 0.0
2017-Feb-15 09:28N 53°35' E 014°34'4 4.9
2017-Feb-15 08:33N 53°39' E 014°33'5 5.2
2017-Feb-15 07:33N 53°43' E 014°28'28 5.4
2017-Feb-15 02:23N 54°10' E 014°39'7 8.4
2017-Feb-15 01:33N 54°14' E 014°48'9 8.4
2017-Feb-15 00:30N 54°19' E 015°01'8 8.3
2017-Feb-14 23:33N 54°23' E 015°12'8 8.3
2017-Feb-14 22:34N 54°29' E 015°23'8 7.9
2017-Feb-14 21:33N 54°31' E 015°36'9 8.1
2017-Feb-14 20:29N 54°36' E 015°48'8 8.1
2017-Feb-14 19:33N 54°40' E 015°60'  
2017-Feb-09 13:29N 55°12' E 018°41'  

Dump ship's entire track history